Time;durP1;ratioP1;P1;durP2;ratioP2;P2;SDS_P1;SDS_P2;PMS_P1;PMS_P2;Temp;Humidity;BMP_temperature;BMP_pressure;BME280_temperature;BME280_humidity;BME280_pressure;Samples;Min_cycle;Max_cycle;Signal;HPM_P1;HPM_P2
2022/04/16 00:00:22;;;;;;;12.70;7.32;;;;;;;9.10;80.95;102962.53;4898732;29;20401;-49
2022/04/16 00:02:50;;;;;;;12.25;7.60;;;;;;;9.02;81.92;102968.16;4898947;29;20411;-53
2022/04/16 00:05:18;;;;;;;9.65;7.03;;;;;;;9.04;81.68;102960.63;4899284;29;20104;-53
2022/04/16 00:08:06;;;;;;;11.82;7.47;;;;;;;9.05;81.53;102965.03;4897973;29;20041;-48
2022/04/16 00:10:39;;;;;;;12.70;7.88;;;;;;;9.06;81.20;102963.97;4898629;29;20068;-55
2022/04/16 00:13:07;;;;;;;10.00;6.78;;;;;;;9.11;81.56;102964.19;4899805;29;20516;-46
2022/04/16 00:15:34;;;;;;;11.27;6.90;;;;;;;9.11;80.88;102967.75;4899696;29;20460;-46
2022/04/16 00:18:03;;;;;;;10.20;7.05;;;;;;;9.08;81.13;102972.78;4899364;29;20044;-45
2022/04/16 00:20:33;;;;;;;13.63;7.50;;;;;;;9.04;81.59;102961.44;4898264;29;20045;-46
2022/04/16 00:23:00;;;;;;;14.80;7.10;;;;;;;9.07;81.30;102965.69;4899430;29;20056;-46
2022/04/16 00:25:33;;;;;;;11.27;7.43;;;;;;;9.04;81.11;102974.22;4899112;29;20040;-49
2022/04/16 00:28:04;;;;;;;10.95;7.15;;;;;;;9.02;81.62;102973.59;4899252;29;20032;-49
2022/04/16 00:30:37;;;;;;;15.00;7.78;;;;;;;9.02;81.70;102966.28;4898013;29;20135;-51
2022/04/16 00:33:06;;;;;;;12.05;7.43;;;;;;;9.03;81.61;102978.00;4898224;29;20120;-51
2022/04/16 00:35:35;;;;;;;13.27;7.93;;;;;;;9.02;81.34;102968.16;4890648;29;20076;-51
2022/04/16 00:38:03;;;;;;;12.02;7.88;;;;;;;9.03;81.66;102972.56;4913069;29;20044;-52
2022/04/16 00:40:30;;;;;;;12.90;7.75;;;;;;;8.98;81.86;102980.50;4897903;29;20048;-49
2022/04/16 00:43:00;;;;;;;12.13;7.95;;;;;;;8.91;82.32;102975.03;4897802;29;20048;-51
2022/04/16 00:45:29;;;;;;;12.48;7.68;;;;;;;8.80;82.95;102972.88;4897744;29;20143;-49
2022/04/16 00:47:59;;;;;;;11.48;7.65;;;;;;;8.86;82.53;102972.91;4897132;29;20041;-53
2022/04/16 00:50:27;;;;;;;11.52;7.78;;;;;;;8.91;82.59;102969.59;4897019;29;20071;-49
2022/04/16 00:52:54;;;;;;;12.68;7.57;;;;;;;8.82;83.16;102968.09;4898468;29;20052;-49
2022/04/16 00:55:22;;;;;;;14.20;8.63;;;;;;;8.76;82.99;102966.19;4897466;29;20111;-51
2022/04/16 00:57:51;;;;;;;12.75;8.10;;;;;;;8.79;83.30;102972.06;4896290;29;20496;-45
2022/04/16 01:00:19;;;;;;;13.73;8.30;;;;;;;8.79;83.92;102969.34;4877041;29;20052;-49
2022/04/16 01:02:47;;;;;;;12.45;8.57;;;;;;;8.81;83.95;102969.97;4879092;29;20405;-46
2022/04/16 01:05:19;;;;;;;15.82;8.50;;;;;;;8.79;83.79;102966.63;4884885;29;20075;-44
2022/04/16 01:07:53;;;;;;;13.75;9.10;;;;;;;8.85;83.14;102967.66;4893630;29;20047;-51
2022/04/16 01:10:21;;;;;;;15.93;8.95;;;;;;;8.73;83.73;102970.13;4896434;29;20506;-46
2022/04/16 01:12:49;;;;;;;14.82;9.15;;;;;;;8.64;84.48;102960.50;4896457;29;20044;-50
2022/04/16 01:15:17;;;;;;;13.85;8.35;;;;;;;8.46;85.27;102970.00;4896342;29;20044;-49
2022/04/16 01:17:45;;;;;;;14.35;8.73;;;;;;;8.47;84.96;102970.88;4897804;29;20076;-49
2022/04/16 01:20:13;;;;;;;13.55;9.13;;;;;;;8.52;84.80;102974.66;4895835;29;20518;-50
2022/04/16 01:22:41;;;;;;;14.63;9.00;;;;;;;8.60;84.55;102978.25;4897552;29;20051;-51
2022/04/16 01:25:08;;;;;;;13.00;8.57;;;;;;;8.64;84.46;102980.34;4896397;29;20051;-50
2022/04/16 01:27:36;;;;;;;14.20;9.50;;;;;;;8.55;84.57;102975.28;4896576;29;20055;-49
2022/04/16 01:30:05;;;;;;;11.90;8.57;;;;;;;8.47;84.96;102988.00;4895853;29;20048;-48
2022/04/16 01:32:33;;;;;;;11.95;8.48;;;;;;;8.48;85.78;102988.84;4897212;29;20051;-49
2022/04/16 01:35:00;;;;;;;13.80;8.65;;;;;;;8.51;85.12;102992.00;4897622;29;20051;-49
2022/04/16 01:37:33;;;;;;;13.18;8.65;;;;;;;8.44;86.21;102988.41;4896569;29;20058;-51
2022/04/16 01:40:07;;;;;;;14.60;9.15;;;;;;;8.51;85.40;102993.84;4897103;29;20514;-52
2022/04/16 01:42:35;;;;;;;12.75;8.52;;;;;;;8.55;85.36;102995.16;4861027;29;1082757;-50
2022/04/16 01:45:03;;;;;;;14.13;8.77;;;;;;;8.37;86.05;102998.38;4894571;29;20385;-51
2022/04/16 01:47:33;;;;;;;13.43;9.32;;;;;;;8.32;86.44;103001.69;4897523;29;20048;-50
2022/04/16 01:50:01;;;;;;;17.65;10.18;;;;;;;8.37;86.92;102997.50;4897732;29;20041;-50
2022/04/16 01:52:28;;;;;;;12.20;8.18;;;;;;;8.33;86.82;102997.91;4896846;29;20048;-49
2022/04/16 01:54:57;;;;;;;16.85;9.73;;;;;;;8.34;86.29;103001.47;4895540;29;20048;-49
2022/04/16 01:57:24;;;;;;;13.02;9.77;;;;;;;8.23;87.20;102999.31;4896656;29;20047;-49
2022/04/16 01:59:52;;;;;;;11.27;8.77;;;;;;;8.21;87.53;102994.06;4896626;29;20071;-48
2022/04/16 02:02:21;;;;;;;13.02;8.85;;;;;;;8.23;87.96;103002.03;4896967;29;20048;-49
2022/04/16 02:04:50;;;;;;;14.70;9.85;;;;;;;8.23;87.70;102999.31;4897972;29;20049;-49
2022/04/16 02:07:18;;;;;;;13.43;8.68;;;;;;;8.33;86.92;102997.09;4896999;29;20052;-49
2022/04/16 02:09:45;;;;;;;13.52;8.90;;;;;;;8.40;86.27;102992.56;4895637;29;20067;-49
2022/04/16 02:12:13;;;;;;;14.18;9.25;;;;;;;8.33;86.69;102991.66;4897641;29;20049;-50
2022/04/16 02:14:41;;;;;;;14.23;9.73;;;;;;;8.29;86.64;102991.19;4897867;29;20051;-48
2022/04/16 02:17:09;;;;;;;15.10;10.13;;;;;;;8.31;86.96;102991.00;4897603;29;20055;-48
2022/04/16 02:19:38;;;;;;;13.27;9.20;;;;;;;8.14;87.70;102995.91;4897666;29;20049;-51
2022/04/16 02:22:06;;;;;;;12.98;9.63;;;;;;;8.00;89.10;102989.53;4896184;29;20500;-51
2022/04/16 02:24:33;;;;;;;14.40;9.55;;;;;;;8.02;88.23;102992.88;4897930;29;20523;-52
2022/04/16 02:27:01;;;;;;;14.13;8.98;;;;;;;8.02;88.59;102990.19;4897986;29;20047;-49
2022/04/16 02:29:29;;;;;;;14.00;9.02;;;;;;;8.02;89.28;102990.19;4896893;29;20476;-49
2022/04/16 02:31:56;;;;;;;14.57;10.13;;;;;;;8.08;88.83;102986.69;4897318;29;20049;-49
2022/04/16 02:34:24;;;;;;;16.80;10.55;;;;;;;8.00;89.37;102988.69;4895941;29;20057;-47
2022/04/16 02:36:51;;;;;;;13.80;10.02;;;;;;;8.00;90.01;102994.97;4881122;29;20044;-52
2022/04/16 02:39:19;;;;;;;13.90;10.60;;;;;;;8.02;89.17;102994.78;4897571;29;20060;-50
2022/04/16 02:41:47;;;;;;;15.98;10.40;;;;;;;8.03;89.24;102997.31;4896001;29;20083;-49
2022/04/16 02:47:06;;;;;;;;;;;;;;;8.03;88.89;102996.44;4897733;29;20060;-49
2022/04/16 02:49:40;;;;;;;14.65;9.68;;;;;;;8.02;89.47;102995.59;4897761;29;20303;-49
2022/04/16 02:52:08;;;;;;;15.60;11.30;;;;;;;7.97;89.40;103003.50;4897011;29;20100;-49
2022/04/16 02:54:37;;;;;;;15.32;11.20;;;;;;;7.84;89.82;103003.38;4897690;29;20048;-48
2022/04/16 02:57:05;;;;;;;16.55;11.45;;;;;;;7.83;89.77;103001.72;4900883;29;20044;-52
2022/04/16 02:59:35;;;;;;;20.25;10.95;;;;;;;7.82;89.80;103000.06;4899798;29;20132;-51
2022/04/16 03:02:03;;;;;;;15.73;10.75;;;;;;;7.82;90.50;103010.91;4900562;29;20407;-50
2022/04/16 03:04:32;;;;;;;12.75;9.50;;;;;;;7.84;91.24;103019.66;4901005;29;20041;-49
2022/04/16 03:06:59;;;;;;;17.63;12.05;;;;;;;7.98;89.78;103013.31;4900493;29;20053;-49
2022/04/16 03:09:27;;;;;;;16.80;10.65;;;;;;;7.96;89.37;103009.97;4900296;29;20048;-53
2022/04/16 03:11:55;;;;;;;13.73;9.93;;;;;;;7.99;89.67;103016.91;4897081;29;20476;-50
2022/04/16 03:19:55;;;;;;;;;;;;;;;7.88;89.88;103020.97;4900998;29;20048;-49
2022/04/16 03:22:23;;;;;;;13.43;9.70;;;;;;;7.80;91.08;103021.94;4898946;29;19924;-51
2022/04/16 03:24:54;;;;;;;15.45;11.32;;;;;;;7.78;90.49;103012.31;4900207;29;20492;-50
2022/04/16 03:27:21;;;;;;;17.10;11.50;;;;;;;7.86;91.07;103012.19;4900576;29;20044;-50
2022/04/16 03:29:49;;;;;;;14.15;11.30;;;;;;;7.98;89.33;103013.31;4900502;29;20057;-52
2022/04/16 03:32:16;;;;;;;14.57;11.13;;;;;;;7.93;89.38;103015.78;4901045;29;20056;-51
2022/04/16 03:34:44;;;;;;;17.05;11.15;;;;;;;7.97;89.57;103016.25;4899252;29;20044;-50
2022/04/16 03:37:11;;;;;;;15.68;11.15;;;;;;;7.95;89.63;103015.59;4897804;29;20044;-51
2022/04/16 03:39:39;;;;;;;16.00;10.70;;;;;;;7.94;89.38;103017.47;4897980;29;20044;-53
2022/04/16 03:42:07;;;;;;;18.50;12.38;;;;;;;7.93;89.44;103012.25;4881125;29;20049;-49
2022/04/16 03:44:34;;;;;;;15.02;11.43;;;;;;;7.84;89.75;103019.66;4882091;29;20049;-51
2022/04/16 03:47:02;;;;;;;16.63;11.80;;;;;;;7.95;90.60;103019.16;4896247;29;20059;-56
2022/04/16 03:49:30;;;;;;;16.33;12.23;;;;;;;8.00;89.26;103022.09;4899088;29;20437;-55
2022/04/16 03:51:57;;;;;;;19.05;13.00;;;;;;;7.86;90.02;103023.03;4900017;29;20411;-50
2022/04/16 04:00:17;;;;;;;16.55;12.30;;;;;;;7.71;91.06;103030.41;4919159;29;20069;-49
2022/04/16 04:02:45;;;;;;;15.23;11.70;;;;;;;7.80;91.03;103029.25;4933841;29;20426;-50
2022/04/16 04:05:12;;;;;;;15.68;11.73;;;;;;;7.79;90.61;103028.44;4907071;29;20092;-50
2022/04/16 04:07:40;;;;;;;15.25;11.52;;;;;;;7.90;90.49;103017.03;4879000;29;20045;-47
2022/04/16 04:10:08;;;;;;;16.02;12.05;;;;;;;7.86;89.90;103014.88;4879819;29;20056;-51
2022/04/16 04:12:36;;;;;;;17.25;12.18;;;;;;;7.79;90.25;103028.44;4894624;29;20072;-48
2022/04/16 04:15:04;;;;;;;20.42;12.07;;;;;;;7.77;90.58;103035.06;4896429;29;20048;-51
2022/04/16 04:17:31;;;;;;;16.83;12.15;;;;;;;7.82;90.73;103032.63;4898334;29;20040;-50
2022/04/16 04:19:59;;;;;;;17.13;12.60;;;;;;;7.80;90.00;103035.53;4898762;29;20432;-49
2022/04/16 04:22:27;;;;;;;18.17;13.00;;;;;;;7.61;90.85;103039.72;4892554;29;20045;-49
2022/04/16 04:24:54;;;;;;;17.23;12.63;;;;;;;7.57;92.16;103041.13;4897478;29;20049;-53
2022/04/16 04:27:22;;;;;;;17.02;12.02;;;;;;;7.58;91.78;103042.00;4899072;29;20071;-49
2022/04/16 04:29:49;;;;;;;17.77;13.07;;;;;;;7.59;92.10;103046.38;4899052;29;20055;-51
2022/04/16 04:32:17;;;;;;;16.75;12.77;;;;;;;7.55;92.03;103047.78;4898373;29;20060;-49
2022/04/16 04:34:44;;;;;;;17.23;11.80;;;;;;;7.55;92.33;103048.66;4899219;29;20067;-49
2022/04/16 04:37:12;;;;;;;18.27;12.52;;;;;;;7.61;91.99;103047.84;4896650;29;20364;-50
2022/04/16 04:39:40;;;;;;;18.77;13.65;;;;;;;7.56;91.50;103052.19;4899362;29;20057;-51
2022/04/16 04:42:07;;;;;;;18.05;13.73;;;;;;;7.53;91.88;103049.84;4892698;29;20117;-52
2022/04/16 04:44:35;;;;;;;20.02;13.57;;;;;;;7.50;92.33;103056.50;4880331;29;20056;-49
2022/04/16 04:47:03;;;;;;;18.02;12.77;;;;;;;7.60;92.59;103050.75;4889472;29;20048;-51
2022/04/16 04:49:30;;;;;;;19.60;13.27;;;;;;;7.57;91.97;103064.72;4898694;29;20048;-48
2022/04/16 04:51:58;;;;;;;17.70;13.18;;;;;;;7.40;92.19;103061.41;4897844;29;20048;-52
2022/04/16 04:54:25;;;;;;;16.95;13.10;;;;;;;7.25;93.87;103062.28;4880349;29;20049;-49
2022/04/16 04:56:53;;;;;;;17.88;12.95;;;;;;;7.31;94.24;103071.53;4885348;29;20040;-49
2022/04/16 04:59:21;;;;;;;19.58;13.82;;;;;;;7.37;93.86;103072.63;4898830;29;20132;-49
2022/04/16 05:01:48;;;;;;;18.88;14.05;;;;;;;7.41;94.08;103074.78;4896169;29;20048;-50
2022/04/16 05:04:16;;;;;;;19.60;14.05;;;;;;;7.50;92.78;103072.78;4898694;29;20041;-49
2022/04/16 05:06:44;;;;;;;17.02;13.40;;;;;;;7.49;92.82;103072.97;4898491;29;20049;-49
2022/04/16 05:09:12;;;;;;;16.42;13.48;;;;;;;7.52;93.49;103076.13;4898206;29;20052;-50
2022/04/16 05:11:42;;;;;;;19.70;14.88;;;;;;;7.52;92.67;103076.13;4896698;29;20052;-53
2022/04/16 05:14:09;;;;;;;24.85;17.02;;;;;;;7.47;93.45;103084.00;4896053;29;20044;-54
2022/04/16 05:16:37;;;;;;;20.35;16.52;;;;;;;7.46;93.82;103088.59;4897431;29;20041;-51
2022/04/16 05:19:05;;;;;;;21.38;16.98;;;;;;;7.51;94.23;103087.19;4897076;29;20045;-50
2022/04/16 05:21:32;;;;;;;20.23;16.20;;;;;;;7.47;93.51;103089.44;4898065;29;20048;-47
2022/04/16 05:24:00;;;;;;;21.60;16.33;;;;;;;7.47;93.87;103094.88;4897245;29;20487;-50
2022/04/16 05:26:28;;;;;;;18.33;14.45;;;;;;;7.49;94.32;103100.09;4898102;29;20074;-50
2022/04/16 05:28:56;;;;;;;18.23;14.35;;;;;;;7.49;94.39;103098.22;4898192;29;20044;-49
2022/04/16 05:31:26;;;;;;;20.00;15.30;;;;;;;7.46;94.47;103096.75;4898387;29;20536;-53
2022/04/16 05:36:41;;;;;;;22.75;16.30;;;;;;;7.44;94.37;103101.50;4916625;29;20155;-52
2022/04/16 05:39:09;;;;;;;22.33;16.83;;;;;;;7.48;95.35;103112.84;4885893;29;20060;-50
2022/04/16 05:41:37;;;;;;;21.65;15.98;;;;;;;7.54;95.14;103111.22;4898132;29;20053;-50
2022/04/16 05:44:06;;;;;;;18.05;15.02;;;;;;;7.58;95.10;103121.50;4896323;29;20053;-51
2022/04/16 05:46:33;;;;;;;19.45;15.55;;;;;;;7.69;95.12;103120.16;4897511;29;20119;-49
2022/04/16 05:49:02;;;;;;;20.83;16.27;;;;;;;7.76;94.42;103114.81;4928140;29;20480;-51
2022/04/16 05:51:30;;;;;;;21.17;17.08;;;;;;;7.83;94.13;103115.72;4926629;29;20041;-48
2022/04/16 05:53:59;;;;;;;24.02;15.98;;;;;;;7.82;94.12;103114.03;4898105;29;20055;-50
2022/04/16 05:56:26;;;;;;;22.27;16.58;;;;;;;7.81;93.83;103117.78;4909168;29;20049;-49
2022/04/16 05:58:54;;;;;;;18.40;13.80;;;;;;;7.84;94.20;103122.81;4894312;29;20055;-51
2022/04/16 06:01:22;;;;;;;19.98;15.80;;;;;;;7.86;94.91;103128.88;4896462;29;20048;-49
2022/04/16 06:03:50;;;;;;;20.85;16.70;;;;;;;7.86;94.71;103127.03;4926859;29;20056;-50
2022/04/16 06:06:17;;;;;;;22.55;14.77;;;;;;;7.92;95.09;103130.84;4897931;29;20465;-52
2022/04/16 06:08:45;;;;;;;23.13;17.85;;;;;;;7.95;94.55;103144.03;4897477;29;20626;-52
2022/04/16 06:11:17;;;;;;;23.52;17.80;;;;;;;8.01;94.75;103139.69;4897418;29;20135;-50
2022/04/16 06:13:44;;;;;;;22.20;16.08;;;;;;;7.97;95.27;103146.56;4882530;29;20037;-50
2022/04/16 06:16:12;;;;;;;23.17;16.67;;;;;;;7.96;95.93;103148.44;4879302;29;20044;-49
2022/04/16 06:18:40;;;;;;;23.17;19.20;;;;;;;7.94;97.00;103149.63;4879452;29;20048;-53
2022/04/16 06:21:08;;;;;;;22.42;15.82;;;;;;;8.00;96.37;103149.69;4888416;29;20407;-53
2022/04/16 06:23:35;;;;;;;24.48;17.05;;;;;;;8.07;96.82;103149.78;4896911;29;20053;-50
2022/04/16 06:26:03;;;;;;;20.55;16.10;;;;;;;8.15;96.08;103151.50;4897908;29;20049;-50
2022/04/16 06:28:30;;;;;;;24.58;19.48;;;;;;;8.17;97.07;103160.31;4898004;29;20049;-48
2022/04/16 06:30:58;;;;;;;24.85;18.55;;;;;;;8.21;97.26;103156.19;4899791;29;20037;-52
2022/04/16 06:33:26;;;;;;;22.63;18.42;;;;;;;8.25;97.23;103152.88;4901123;29;20074;-49
2022/04/16 06:35:53;;;;;;;26.05;19.02;;;;;;;8.23;97.04;103164.97;4900588;29;20096;-50
2022/04/16 06:38:21;;;;;;;23.63;19.55;;;;;;;8.26;97.29;103156.44;4901402;29;20037;-50
2022/04/16 06:40:48;;;;;;;25.27;19.48;;;;;;;8.31;97.45;103156.69;4901050;29;20048;-49
2022/04/16 06:43:16;;;;;;;23.48;19.25;;;;;;;8.32;97.53;103159.22;4882499;29;20076;-53
2022/04/16 06:45:47;;;;;;;26.90;20.55;;;;;;;8.37;97.91;103157.78;4885354;29;20041;-54
2022/04/16 06:48:15;;;;;;;24.75;20.02;;;;;;;8.37;97.67;103157.78;4888885;29;20572;-50
2022/04/16 06:50:42;;;;;;;25.02;18.60;;;;;;;8.35;97.59;103162.59;4900970;29;20408;-50
2022/04/16 06:53:10;;;;;;;24.75;19.27;;;;;;;8.37;98.00;103155.91;4900420;29;20508;-51
2022/04/16 06:55:37;;;;;;;23.70;19.10;;;;;;;8.42;97.60;103158.91;4882349;29;20485;-49
2022/04/16 06:58:05;;;;;;;24.25;18.63;;;;;;;8.51;96.98;103152.31;4894436;29;20049;-49
2022/04/16 07:00:33;;;;;;;24.15;18.92;;;;;;;8.60;96.62;103154.88;4882868;29;20049;-51
2022/04/16 07:03:00;;;;;;;26.05;18.63;;;;;;;8.61;96.87;103153.81;4894289;29;20051;-46
2022/04/16 07:05:28;;;;;;;25.42;18.73;;;;;;;8.64;97.40;103162.44;4902348;29;20050;-48
2022/04/16 07:07:56;;;;;;;27.60;22.08;;;;;;;8.63;96.89;103165.34;4906119;29;20432;-50
2022/04/16 07:10:23;;;;;;;26.63;19.92;;;;;;;8.65;97.46;103163.25;4900687;29;20045;-50
2022/04/16 07:12:51;;;;;;;22.73;18.73;;;;;;;8.64;98.18;103167.88;4900302;29;20055;-48
2022/04/16 07:15:18;;;;;;;27.55;20.65;;;;;;;8.65;97.81;103174.13;4930657;29;20481;-50
2022/04/16 07:17:46;;;;;;;22.90;18.67;;;;;;;8.70;97.43;103179.81;4900406;29;20056;-49
2022/04/16 07:20:14;;;;;;;22.50;18.05;;;;;;;8.71;97.01;103178.78;4900641;29;20076;-50
2022/04/16 07:22:41;;;;;;;25.77;19.55;;;;;;;8.73;97.16;103174.84;4900276;29;20059;-50
2022/04/16 07:25:09;;;;;;;25.45;20.25;;;;;;;8.77;97.08;103161.69;4900478;29;20048;-50
2022/04/16 07:27:37;;;;;;;23.83;19.38;;;;;;;8.77;96.94;103169.00;4899949;29;20479;-47
2022/04/16 07:30:05;;;;;;;23.02;18.65;;;;;;;8.79;97.52;103173.19;4900111;29;20040;-49
2022/04/16 07:32:32;;;;;;;26.23;18.48;;;;;;;8.85;96.96;103168.84;4899274;29;20044;-49
2022/04/16 07:35:00;;;;;;;25.80;18.70;;;;;;;8.85;96.59;103164.25;4900211;29;20043;-51
2022/04/16 07:37:27;;;;;;;26.83;19.90;;;;;;;8.92;96.53;103167.88;4899939;29;20053;-49
2022/04/16 07:39:55;;;;;;;23.35;19.10;;;;;;;8.93;96.06;103172.25;4900374;29;20072;-48
2022/04/16 07:42:26;;;;;;;37.25;27.90;;;;;;;8.98;96.85;103168.09;4897995;29;20420;-47
2022/04/16 07:44:57;;;;;;;25.58;19.27;;;;;;;9.06;96.36;103165.22;4930191;29;20068;-49
2022/04/16 07:47:25;;;;;;;24.48;18.70;;;;;;;9.08;95.75;103168.56;4899867;29;20044;-50
2022/04/16 07:49:52;;;;;;;27.02;18.85;;;;;;;9.10;96.60;103167.34;4899136;29;20041;-49
2022/04/16 07:52:20;;;;;;;26.50;17.80;;;;;;;9.16;96.50;103171.13;4900000;29;20044;-48
2022/04/16 07:54:48;;;;;;;21.02;16.42;;;;;;;9.20;94.88;103166.97;4898680;29;20045;-47
2022/04/16 07:57:15;;;;;;;22.55;17.48;;;;;;;9.24;95.45;103162.81;4899839;29;20053;-48
2022/04/16 07:59:43;;;;;;;23.23;18.50;;;;;;;9.28;94.17;103164.06;4899671;29;20052;-49
2022/04/16 08:02:11;;;;;;;21.08;17.00;;;;;;;9.33;93.83;103171.63;4899489;29;20057;-48
2022/04/16 08:04:39;;;;;;;22.15;17.98;;;;;;;9.36;93.45;103169.34;4899632;29;20041;-51
2022/04/16 08:07:06;;;;;;;23.58;17.02;;;;;;;9.37;92.75;103165.59;4899216;29;20060;-51
2022/04/16 08:09:34;;;;;;;21.83;17.27;;;;;;;9.38;92.62;103182.78;4899631;29;20060;-52
2022/04/16 08:12:02;;;;;;;21.48;16.77;;;;;;;9.42;92.09;103177.75;4899204;29;20044;-52
2022/04/16 08:14:29;;;;;;;21.52;16.70;;;;;;;9.46;92.07;103179.03;4898479;29;20045;-52
2022/04/16 08:16:57;;;;;;;20.00;17.00;;;;;;;9.49;92.15;103181.34;4898912;29;20045;-48
2022/04/16 08:19:24;;;;;;;23.08;16.92;;;;;;;9.52;92.02;103181.75;4898415;29;20052;-53
2022/04/16 08:21:53;;;;;;;19.75;16.00;;;;;;;9.54;91.72;103178.84;4899394;29;20052;-50
2022/04/16 08:26:54;;;;;;;20.98;15.85;;;;;;;9.61;91.28;103185.16;4898891;29;20036;-53
2022/04/16 08:29:22;;;;;;;21.73;16.35;;;;;;;9.67;90.67;103184.38;4898933;29;20045;-50
2022/04/16 08:31:50;;;;;;;22.50;16.27;;;;;;;9.71;90.36;103182.88;4899241;29;20408;-51
2022/04/16 08:34:38;;;;;;;25.35;18.13;;;;;;;9.79;91.02;103182.72;4897537;29;20036;-51
2022/04/16 08:37:05;;;;;;;20.73;15.55;;;;;;;9.88;90.55;103186.09;4893765;29;20497;-51
2022/04/16 08:39:33;;;;;;;19.20;15.38;;;;;;;9.93;89.61;103188.19;4898905;29;20041;-49
2022/04/16 08:42:00;;;;;;;19.98;15.52;;;;;;;9.93;88.62;103188.19;4886892;29;20056;-50
2022/04/16 08:44:28;;;;;;;20.88;15.57;;;;;;;9.94;88.33;103187.16;4881852;29;20041;-49
2022/04/16 08:46:56;;;;;;;20.13;15.57;;;;;;;9.96;88.53;103182.34;4911744;29;20033;-49
2022/04/16 08:49:25;;;;;;;19.23;14.50;;;;;;;10.03;86.85;103184.03;4893663;29;20059;-53
2022/04/16 08:51:53;;;;;;;19.85;15.40;;;;;;;10.12;86.81;103187.41;4896856;29;20502;-52
2022/04/16 08:54:21;;;;;;;20.02;14.43;;;;;;;10.16;86.57;103194.13;4898337;29;20040;-50
2022/04/16 08:56:48;;;;;;;19.17;13.90;;;;;;;10.19;86.42;103188.25;4897487;29;20052;-50
2022/04/16 08:59:16;;;;;;;18.10;13.60;;;;;;;10.27;84.63;103184.50;4897790;29;20064;-50
2022/04/16 09:01:44;;;;;;;21.83;13.23;;;;;;;10.36;84.25;103177.81;4898726;29;20130;-49
2022/04/16 09:04:22;;;;;;;17.42;12.07;;;;;;;10.40;82.10;103183.72;4898782;29;20045;-49
2022/04/16 09:07:01;;;;;;;19.00;12.77;;;;;;;10.42;82.30;103182.44;4895293;29;20045;-49
2022/04/16 09:09:28;;;;;;;18.83;13.93;;;;;;;10.44;82.67;103184.97;4893042;29;20491;-50
2022/04/16 09:11:56;;;;;;;23.00;14.77;;;;;;;10.47;83.48;103179.09;4883095;29;20053;-50
2022/04/16 09:14:43;;;;;;;18.45;13.98;;;;;;;10.54;83.18;103179.09;4887422;29;20056;-49
2022/04/16 09:17:17;;;;;;;17.20;12.35;;;;;;;10.64;80.01;103185.81;4895969;29;20044;-52
2022/04/16 09:19:54;;;;;;;18.15;12.55;;;;;;;10.65;78.43;103186.63;4894088;29;20060;-51
2022/04/16 09:22:33;;;;;;;18.40;12.52;;;;;;;10.64;78.67;103185.81;4898575;29;20488;-49
2022/04/16 09:25:02;;;;;;;20.20;14.60;;;;;;;10.69;78.96;103187.06;4898096;29;20040;-49
2022/04/16 09:27:43;;;;;;;19.92;13.70;;;;;;;10.73;78.52;103185.59;4885892;29;20421;-49
2022/04/16 09:30:11;;;;;;;20.55;12.60;;;;;;;10.80;78.46;103178.22;4879882;29;20124;-50
2022/04/16 09:32:46;;;;;;;16.15;11.80;;;;;;;10.85;78.24;103181.19;4888031;29;20673;-49
2022/04/16 09:35:34;;;;;;;17.00;12.18;;;;;;;10.93;76.25;103177.38;4882972;29;20408;-53
2022/04/16 09:38:14;;;;;;;14.80;10.95;;;;;;;10.97;73.83;103168.56;4886189;29;20560;-52
2022/04/16 09:40:46;;;;;;;14.27;10.30;;;;;;;10.94;73.85;103168.97;4889439;29;20068;-51
2022/04/16 09:43:14;;;;;;;16.83;11.27;;;;;;;10.98;73.08;103172.97;4900426;29;20071;-52
2022/04/16 09:45:42;;;;;;;14.23;10.65;;;;;;;10.99;72.67;103163.75;4900907;29;20040;-53
2022/04/16 09:48:12;;;;;;;14.80;10.70;;;;;;;11.00;73.25;103161.84;4898025;29;20049;-52
2022/04/16 09:50:42;;;;;;;15.10;11.13;;;;;;;11.04;74.88;103161.22;4897213;29;20052;-50
2022/04/16 09:53:10;;;;;;;13.88;9.95;;;;;;;11.12;72.59;103172.94;4897686;29;20077;-53
2022/04/16 09:55:39;;;;;;;12.85;9.48;;;;;;;11.16;70.74;103160.53;4896404;29;20040;-51
2022/04/16 09:58:08;;;;;;;15.10;9.95;;;;;;;11.24;71.63;103157.59;4897887;29;20492;-50
2022/04/16 10:00:38;;;;;;;12.90;9.55;;;;;;;11.38;70.07;103161.94;4896103;29;20052;-50
2022/04/16 10:03:27;;;;;;;13.63;9.55;;;;;;;11.39;69.16;103160.88;4897062;29;20047;-49
2022/04/16 10:05:58;;;;;;;15.25;9.02;;;;;;;11.36;68.44;103166.78;4900018;29;20049;-54
2022/04/16 10:08:27;;;;;;;12.32;8.07;;;;;;;11.40;68.07;103161.72;4899924;29;20036;-54
2022/04/16 10:10:57;;;;;;;12.27;7.75;;;;;;;11.46;66.81;103164.41;4896958;29;20497;-54
2022/04/16 10:13:25;;;;;;;13.23;8.05;;;;;;;11.49;66.85;103155.78;4901155;29;20037;-53
2022/04/16 10:16:01;;;;;;;13.15;7.80;;;;;;;11.58;66.04;103159.13;4900601;29;20098;-50
2022/04/16 10:18:32;;;;;;;14.02;6.20;;;;;;;11.76;64.51;103160.28;4900644;29;20055;-55
2022/04/16 10:21:00;;;;;;;9.48;6.25;;;;;;;11.80;62.58;103153.34;4898943;29;20055;-49
2022/04/16 10:23:39;;;;;;;10.25;6.95;;;;;;;11.84;63.72;103158.16;4901018;29;20116;-50
2022/04/16 10:26:17;;;;;;;10.93;6.90;;;;;;;11.85;65.27;103153.50;4901306;29;20048;-50
2022/04/16 10:28:54;;;;;;;14.13;8.60;;;;;;;11.85;65.03;103148.88;4896398;29;20048;-52
2022/04/16 10:31:28;;;;;;;12.38;8.15;;;;;;;11.84;65.13;103155.41;4890036;29;20045;-50
2022/04/16 10:34:05;;;;;;;8.88;6.38;;;;;;;11.84;62.49;103151.84;4899953;29;20112;-53
2022/04/16 10:36:51;;;;;;;9.82;5.82;;;;;;;11.83;62.35;103151.00;4901825;29;20055;-48
2022/04/16 10:39:23;;;;;;;9.77;5.95;;;;;;;11.91;62.59;103149.94;4900441;29;20041;-50
2022/04/16 10:41:55;;;;;;;8.30;5.20;;;;;;;11.99;62.58;103148.84;4898654;29;20056;-49
2022/04/16 10:44:23;;;;;;;9.32;5.70;;;;;;;12.06;61.09;103157.84;4901108;29;20052;-50
2022/04/16 10:46:52;;;;;;;10.80;6.07;;;;;;;12.07;61.31;103156.75;4900329;29;20056;-49
2022/04/16 10:49:22;;;;;;;9.82;6.22;;;;;;;12.08;62.20;103155.72;4880250;29;20049;-49
2022/04/16 10:51:52;;;;;;;9.25;6.10;;;;;;;12.12;62.24;103156.94;4895519;29;20093;-50
2022/04/16 10:54:28;;;;;;;13.55;6.53;;;;;;;12.18;62.02;103158.78;4212004;29;10000530;-50
2022/04/16 10:56:57;;;;;;;10.55;6.05;;;;;;;12.26;61.33;103161.25;4878116;29;20060;-46
2022/04/16 10:59:40;;;;;;;10.00;6.05;;;;;;;12.36;60.47;103158.00;4886551;29;20614;-48
2022/04/16 11:02:35;;;;;;;11.73;6.22;;;;;;;12.31;59.10;103147.78;4897878;29;20060;-54
2022/04/16 11:05:10;;;;;;;9.30;6.15;;;;;;;12.27;59.52;103149.28;4897988;29;20064;-48
2022/04/16 11:07:39;;;;;;;9.93;6.32;;;;;;;12.32;60.82;103148.59;4895785;29;20045;-47
2022/04/16 11:10:11;;;;;;;9.52;5.63;;;;;;;12.40;59.91;103144.75;4900310;29;20041;-48
2022/04/16 11:12:40;;;;;;;10.55;7.25;;;;;;;12.48;60.44;103155.41;4899658;29;20041;-49
2022/04/16 11:15:19;;;;;;;12.18;6.47;;;;;;;12.53;62.23;103144.63;4899348;29;20104;-50
2022/04/16 11:17:47;;;;;;;9.88;5.90;;;;;;;12.61;63.09;103151.72;4884085;29;20047;-51
2022/04/16 11:20:14;;;;;;;10.35;6.28;;;;;;;12.57;60.36;103151.31;4899463;29;20052;-53
2022/04/16 11:22:47;;;;;;;12.50;6.97;;;;;;;12.56;59.79;103136.81;4900239;29;20128;-50
2022/04/16 11:25:15;;;;;;;8.43;4.47;;;;;;;12.57;64.25;103133.00;4899802;29;20130;-49
2022/04/16 11:34:27;;;;;;;9.68;5.60;;;;;;;12.62;57.66;103136.97;4899077;29;20052;-49
2022/04/16 11:36:25;;;;;;;9.77;6.78;;;;;;;12.69;58.41;103145.97;4932739;29;20112;-52
2022/04/16 11:38:53;;;;;;;11.13;6.15;;;;;;;12.74;58.73;103141.47;4900006;29;20132;-51
2022/04/16 11:41:21;;;;;;;10.23;6.03;;;;;;;12.74;58.73;103144.22;4899363;29;20056;-50
2022/04/16 11:43:51;;;;;;;9.18;6.43;;;;;;;12.73;58.62;103128.88;4898468;29;20051;-51
2022/04/16 11:46:22;;;;;;;11.35;6.28;;;;;;;12.75;57.07;103124.03;4899908;29;20041;-49
2022/04/16 11:48:50;;;;;;;9.00;5.72;;;;;;;12.72;56.35;103127.22;4900053;29;20049;-49
2022/04/16 11:51:19;;;;;;;7.93;5.00;;;;;;;12.74;57.45;103129.72;4898481;29;20044;-51
2022/04/16 11:53:51;;;;;;;10.73;5.95;;;;;;;12.81;57.53;103133.22;4898684;29;20071;-51